Time,TemperatureF,DewpointF,PressureIn,WindDirection,WindDirectionDegrees,WindSpeedMPH,WindSpeedGustMPH,Humidity,HourlyPrecipIn,Conditions,Clouds,dailyrainin,SoftwareType,DateUTC
2013-01-25 00:00:00,60.3,56.7,30.15,North,0,0.0,0.0,88,0.00,,CLR,0.00,VWS V14.01,2013-01-25 06:00:00,
2013-01-25 00:10:00,59.5,56.0,30.15,North,0,0.0,0.0,88,0.00,,CLR,0.00,VWS V14.01,2013-01-25 06:10:00,
2013-01-25 00:20:00,58.9,55.7,30.15,North,0,0.0,0.0,89,0.00,,CLR,0.00,VWS V14.01,2013-01-25 06:20:00,
2013-01-25 00:30:00,58.2,55.0,30.14,North,0,0.0,0.0,89,0.00,,CLR,0.00,VWS V14.01,2013-01-25 06:30:00,
2013-01-25 00:40:00,57.6,54.7,30.14,North,0,0.0,0.0,90,0.00,,CLR,0.00,VWS V14.01,2013-01-25 06:40:00,
2013-01-25 00:50:00,57.6,55.3,30.14,North,0,0.0,0.0,92,0.00,,CLR,0.00,VWS V14.01,2013-01-25 06:50:00,
2013-01-25 01:00:00,58.2,55.9,30.14,North,0,0.0,0.0,92,0.00,,CLR,0.00,VWS V14.01,2013-01-25 07:00:00,
2013-01-25 01:10:00,58.7,56.7,30.14,North,0,0.0,0.0,93,0.00,,CLR,0.00,VWS V14.01,2013-01-25 07:10:00,
2013-01-25 01:20:00,59.2,57.2,30.14,North,0,0.0,0.0,93,0.00,,CLR,0.00,VWS V14.01,2013-01-25 07:20:00,
2013-01-25 01:30:00,59.8,58.1,30.14,South,180,0.0,1.0,94,0.00,,CLR,0.00,VWS V14.01,2013-01-25 07:30:00,
2013-01-25 01:40:00,60.5,58.8,30.14,South,180,0.0,2.0,94,0.00,,CLR,0.00,VWS V14.01,2013-01-25 07:40:00,
2013-01-25 01:50:00,61.0,59.3,30.14,South,180,1.0,4.0,94,0.00,,CLR,0.00,VWS V14.01,2013-01-25 07:50:00,
2013-01-25 02:00:00,61.5,59.8,30.13,South,180,2.0,6.0,94,0.00,,CLR,0.00,VWS V14.01,2013-01-25 08:00:00,
2013-01-25 02:10:00,61.8,59.8,30.13,South,180,1.0,5.0,93,0.00,,CLR,0.00,VWS V14.01,2013-01-25 08:10:00,
2013-01-25 02:20:00,61.9,59.9,30.13,South,180,2.0,5.0,93,0.00,,CLR,0.00,VWS V14.01,2013-01-25 08:20:00,
2013-01-25 02:30:00,62.1,60.1,30.13,SSW,202,2.0,4.0,93,0.00,,CLR,0.00,VWS V14.01,2013-01-25 08:30:00,
2013-01-25 02:40:00,62.2,60.2,30.13,SSW,202,2.0,5.0,93,0.00,,CLR,0.00,VWS V14.01,2013-01-25 08:40:00,
2013-01-25 02:50:00,62.2,60.2,30.12,SSW,202,1.0,4.0,93,0.00,,CLR,0.00,VWS V14.01,2013-01-25 08:50:00,
2013-01-25 03:00:00,62.2,59.8,30.12,SSW,202,1.0,3.0,92,0.00,,CLR,0.00,VWS V14.01,2013-01-25 09:00:00,
2013-01-25 03:10:00,62.4,60.0,30.12,SSW,202,2.0,4.0,92,0.00,,CLR,0.00,VWS V14.01,2013-01-25 09:10:00,
2013-01-25 03:20:00,62.6,60.2,30.12,SSW,202,1.0,4.0,92,0.00,,CLR,0.00,VWS V14.01,2013-01-25 09:20:00,
2013-01-25 03:30:00,62.7,60.3,30.12,South,180,1.0,5.0,92,0.00,,CLR,0.00,VWS V14.01,2013-01-25 09:30:00,
2013-01-25 03:40:00,62.8,60.1,30.12,SSW,202,2.0,7.0,91,0.00,,CLR,0.00,VWS V14.01,2013-01-25 09:40:00,
2013-01-25 03:50:00,62.9,59.9,30.11,South,180,2.0,6.0,90,0.00,,CLR,0.00,VWS V14.01,2013-01-25 09:50:00,
2013-01-25 04:00:00,63.0,60.0,30.11,SSW,202,2.0,6.0,90,0.00,,CLR,0.00,VWS V14.01,2013-01-25 10:00:00,
2013-01-25 04:10:00,63.0,59.7,30.11,SSW,202,3.0,5.0,89,0.00,,CLR,0.00,VWS V14.01,2013-01-25 10:10:00,
2013-01-25 04:20:00,63.0,59.7,30.10,South,180,2.0,6.0,89,0.00,,CLR,0.00,VWS V14.01,2013-01-25 10:20:00,
2013-01-25 04:30:00,63.0,59.7,30.10,SSW,202,2.0,5.0,89,0.00,,CLR,0.00,VWS V14.01,2013-01-25 10:30:00,
2013-01-25 04:40:00,63.0,59.7,30.10,SSW,202,2.0,6.0,89,0.00,,CLR,0.00,VWS V14.01,2013-01-25 10:40:00,
2013-01-25 04:50:00,63.0,59.4,30.09,South,180,2.0,5.0,88,0.00,,CLR,0.00,VWS V14.01,2013-01-25 10:50:00,
2013-01-25 05:00:00,63.2,59.6,30.10,SSE,158,1.0,5.0,88,0.00,,CLR,0.00,VWS V14.01,2013-01-25 11:00:00,
2013-01-25 05:10:00,63.0,59.4,30.10,SSW,202,1.0,6.0,88,0.00,,CLR,0.00,VWS V14.01,2013-01-25 11:10:00,
2013-01-25 05:20:00,63.0,59.4,30.10,SSW,202,0.0,3.0,88,0.00,,CLR,0.00,VWS V14.01,2013-01-25 11:20:00,
2013-01-25 05:30:00,62.9,59.3,30.10,SSW,202,1.0,6.0,88,0.00,,CLR,0.00,VWS V14.01,2013-01-25 11:30:00,
2013-01-25 05:40:00,62.9,59.3,30.10,SSW,202,0.0,3.0,88,0.00,,CLR,0.00,VWS V14.01,2013-01-25 11:40:00,
2013-01-25 05:50:00,62.9,59.3,30.10,SSW,202,0.0,3.0,88,0.00,,CLR,0.00,VWS V14.01,2013-01-25 11:50:00,
2013-01-25 06:00:00,62.7,59.1,30.11,SSW,202,2.0,4.0,88,0.00,,CLR,0.00,VWS V14.01,2013-01-25 12:00:00,
2013-01-25 06:10:00,62.6,59.0,30.11,SSW,202,1.0,3.0,88,0.00,,OVC020,0.00,VWS V14.01,2013-01-25 12:10:00,
2013-01-25 06:18:00,62.6,59.0,30.11,SSW,202,1.0,3.0,88,0.00,,CLR,0.00,VWS V14.01,2013-01-25 12:18:00,
2013-01-25 06:20:00,62.1,58.5,30.12,SSW,202,0.0,2.0,88,0.00,,BKN014,0.00,VWS V14.01,2013-01-25 12:20:00,
2013-01-25 06:23:00,62.2,58.6,30.10,SSW,202,0.0,3.0,88,0.00,,OVC010,0.00,VWS V14.01,2013-01-25 12:23:00,
2013-01-25 06:28:00,62.2,58.6,30.10,SSW,202,0.0,3.0,88,0.00,,OVC010,0.00,VWS V14.01,2013-01-25 12:28:00,
2013-01-25 06:30:00,62.4,58.8,30.10,SSW,202,0.0,1.0,88,0.00,,OVC020,0.00,VWS V14.01,2013-01-25 12:30:00,
2013-01-25 06:33:00,62.2,58.6,30.10,SSW,202,0.0,3.0,88,0.00,,OVC010,0.00,VWS V14.01,2013-01-25 12:33:00,
2013-01-25 06:38:00,62.2,58.6,30.10,SSW,202,0.0,3.0,88,0.00,,OVC010,0.00,VWS V14.01,2013-01-25 12:38:00,
2013-01-25 06:40:00,62.2,58.6,30.10,SSW,202,0.0,3.0,88,0.00,,OVC020,0.00,VWS V14.01,2013-01-25 12:40:00,
2013-01-25 06:43:00,62.2,58.6,30.10,SSW,202,0.0,2.0,88,0.00,,OVC010,0.00,VWS V14.01,2013-01-25 12:43:00,
2013-01-25 06:48:00,62.2,58.6,30.12,SSW,202,1.0,3.0,88,0.00,,OVC010,0.00,VWS V14.01,2013-01-25 12:48:00,
2013-01-25 06:50:00,62.2,58.6,30.10,SSW,202,0.0,3.0,88,0.00,,OVC020,0.00,VWS V14.01,2013-01-25 12:50:00,
2013-01-25 06:53:00,62.1,58.5,30.12,SSW,202,0.0,2.0,88,0.00,,OVC010,0.00,VWS V14.01,2013-01-25 12:53:00,
2013-01-25 06:58:00,62.1,58.5,30.12,SSW,202,0.0,2.0,88,0.00,,OVC010,0.00,VWS V14.01,2013-01-25 12:58:00,
2013-01-25 07:00:00,62.2,58.6,30.12,SSW,202,1.0,3.0,88,0.00,,OVC020,0.00,VWS V14.01,2013-01-25 13:00:00,
2013-01-25 07:03:00,62.1,58.5,30.12,SSW,202,1.0,1.0,88,0.00,,OVC010,0.00,VWS V14.01,2013-01-25 13:03:00,
2013-01-25 07:08:00,62.1,58.5,30.12,SSW,202,0.0,2.0,88,0.00,,OVC010,0.00,VWS V14.01,2013-01-25 13:08:00,
2013-01-25 07:10:00,62.1,58.5,30.12,SSW,202,0.0,2.0,88,0.00,,OVC020,0.00,VWS V14.01,2013-01-25 13:10:00,
2013-01-25 07:13:00,62.1,58.5,30.12,SSW,202,0.0,1.0,88,0.00,,OVC010,0.00,VWS V14.01,2013-01-25 13:13:00,
2013-01-25 07:18:00,62.1,58.5,30.12,SSW,202,0.0,1.0,88,0.00,,OVC010,0.00,VWS V14.01,2013-01-25 13:18:00,
2013-01-25 07:20:00,62.1,58.5,30.12,SSW,202,0.0,2.0,88,0.00,,OVC020,0.00,VWS V14.01,2013-01-25 13:20:00,
2013-01-25 07:23:00,62.1,58.5,30.12,SSW,202,0.0,1.0,88,0.00,,OVC010,0.00,VWS V14.01,2013-01-25 13:23:00,
2013-01-25 07:28:00,61.9,58.3,30.12,SSW,202,0.0,1.0,88,0.00,,OVC010,0.00,VWS V14.01,2013-01-25 13:28:00,
2013-01-25 07:30:00,62.1,58.5,30.12,SSW,202,0.0,1.0,88,0.00,,OVC020,0.00,VWS V14.01,2013-01-25 13:30:00,
2013-01-25 07:33:00,61.9,58.6,30.12,SSW,202,0.0,0.0,89,0.00,,OVC010,0.00,VWS V14.01,2013-01-25 13:33:00,
2013-01-25 07:38:00,61.9,58.6,30.12,SSW,202,0.0,1.0,89,0.00,,OVC010,0.00,VWS V14.01,2013-01-25 13:38:00,
2013-01-25 07:40:00,61.9,58.3,30.12,SSW,202,0.0,1.0,88,0.00,,OVC020,0.00,VWS V14.01,2013-01-25 13:40:00,
2013-01-25 07:43:00,62.1,58.8,30.12,SSW,202,0.0,2.0,89,0.00,,OVC010,0.00,VWS V14.01,2013-01-25 13:43:00,
2013-01-25 07:48:00,62.1,58.8,30.12,SSW,202,2.0,2.0,89,0.00,,OVC010,0.00,VWS V14.01,2013-01-25 13:48:00,
2013-01-25 07:50:00,61.9,58.6,30.12,SSW,202,0.0,1.0,89,0.00,,OVC020,0.00,VWS V14.01,2013-01-25 13:50:00,
2013-01-25 07:53:00,62.2,58.9,30.12,SSW,202,0.0,2.0,89,0.00,,OVC010,0.00,VWS V14.01,2013-01-25 13:53:00,
2013-01-25 07:58:00,62.2,58.9,30.12,SSW,202,0.0,2.0,89,0.00,,OVC010,0.00,VWS V14.01,2013-01-25 13:58:00,
2013-01-25 08:00:00,62.1,58.8,30.12,SSW,202,2.0,2.0,89,0.00,,OVC020,0.00,VWS V14.01,2013-01-25 14:00:00,
2013-01-25 08:03:00,62.2,58.9,30.12,SSW,202,0.0,1.0,89,0.00,,OVC012,0.00,VWS V14.01,2013-01-25 14:03:00,
2013-01-25 08:08:00,62.4,59.1,30.12,SSW,202,0.0,1.0,89,0.00,,OVC012,0.00,VWS V14.01,2013-01-25 14:08:00,
2013-01-25 08:10:00,62.2,58.9,30.12,SSW,202,0.0,2.0,89,0.00,,OVC020,0.00,VWS V14.01,2013-01-25 14:10:00,
2013-01-25 08:13:00,62.4,59.1,30.12,SSW,202,2.0,2.0,89,0.00,,OVC012,0.00,VWS V14.01,2013-01-25 14:13:00,
2013-01-25 08:18:00,62.6,59.3,30.13,SSW,202,0.0,2.0,89,0.00,,OVC012,0.00,VWS V14.01,2013-01-25 14:18:00,
2013-01-25 08:20:00,62.4,59.1,30.12,SSW,202,0.0,1.0,89,0.00,,OVC020,0.00,VWS V14.01,2013-01-25 14:20:00,
2013-01-25 08:23:00,62.7,59.1,30.13,SSW,202,2.0,3.0,88,0.00,,OVC012,0.00,VWS V14.01,2013-01-25 14:23:00,
2013-01-25 08:28:00,62.7,59.1,30.13,SSW,202,2.0,3.0,88,0.00,,OVC012,0.00,VWS V14.01,2013-01-25 14:28:00,
2013-01-25 08:30:00,62.6,59.3,30.13,SSW,202,0.0,2.0,89,0.00,,OVC020,0.00,VWS V14.01,2013-01-25 14:30:00,
2013-01-25 08:33:00,62.9,59.3,30.13,SSW,202,0.0,3.0,88,0.00,,OVC012,0.00,VWS V14.01,2013-01-25 14:33:00,
2013-01-25 08:38:00,63.0,59.1,30.13,SSW,202,3.0,4.0,87,0.00,,OVC012,0.00,VWS V14.01,2013-01-25 14:38:00,
2013-01-25 08:40:00,62.7,59.1,30.13,SSW,202,2.0,3.0,88,0.00,,OVC020,0.00,VWS V14.01,2013-01-25 14:40:00,
2013-01-25 08:43:00,63.2,59.3,30.13,SSW,202,2.0,4.0,87,0.00,,OVC012,0.00,VWS V14.01,2013-01-25 14:43:00,
2013-01-25 08:48:00,63.2,59.0,30.13,South,190,1.0,4.0,86,0.00,,OVC012,0.00,VWS V14.01,2013-01-25 14:48:00,
2013-01-25 08:50:00,63.0,59.1,30.13,SSW,202,2.0,4.0,87,0.00,,OVC020,0.00,VWS V14.01,2013-01-25 14:50:00,
2013-01-25 08:53:00,63.4,59.2,30.13,South,190,2.0,4.0,86,0.00,,OVC012,0.00,VWS V14.01,2013-01-25 14:53:00,
2013-01-25 08:58:00,63.5,59.2,30.13,SSW,192,4.0,7.0,86,0.00,,OVC012,0.00,VWS V14.01,2013-01-25 14:58:00,
2013-01-25 09:00:00,63.2,59.0,30.13,South,190,2.0,4.0,86,0.00,,OVC020,0.00,VWS V14.01,2013-01-25 15:00:00,
2013-01-25 09:03:00,63.5,58.9,30.14,SSW,204,2.0,5.0,85,0.00,,OVC012,0.00,VWS V14.01,2013-01-25 15:03:00,
2013-01-25 09:08:00,63.7,59.1,30.14,SSW,194,1.0,5.0,85,0.00,,OVC012,0.00,VWS V14.01,2013-01-25 15:08:00,
2013-01-25 09:10:00,63.5,59.2,30.13,SSW,192,4.0,7.0,86,0.00,,OVC020,0.00,VWS V14.01,2013-01-25 15:10:00,
2013-01-25 09:13:00,63.8,58.9,30.14,SSW,194,3.0,6.0,84,0.00,,OVC012,0.00,VWS V14.01,2013-01-25 15:13:00,
2013-01-25 09:18:00,64.0,59.1,30.14,SSW,196,4.0,4.0,84,0.00,,OVC012,0.00,VWS V14.01,2013-01-25 15:18:00,
2013-01-25 09:20:00,63.7,59.1,30.14,SSW,194,1.0,5.0,85,0.00,,OVC020,0.00,VWS V14.01,2013-01-25 15:20:00,
2013-01-25 09:23:00,64.0,59.1,30.14,SSW,198,1.0,5.0,84,0.00,,OVC012,0.00,VWS V14.01,2013-01-25 15:23:00,
2013-01-25 09:28:00,64.2,59.3,30.14,SSW,198,0.0,5.0,84,0.00,,OVC012,0.00,VWS V14.01,2013-01-25 15:28:00,
2013-01-25 09:30:00,64.0,59.1,30.14,SSW,196,1.0,6.0,84,0.00,,OVC020,0.00,VWS V14.01,2013-01-25 15:30:00,
2013-01-25 09:33:00,64.3,59.4,30.14,South,188,0.0,5.0,84,0.00,,OVC012,0.00,VWS V14.01,2013-01-25 15:33:00,
2013-01-25 09:38:00,64.5,59.6,30.14,South,188,0.0,5.0,84,0.00,,OVC012,0.00,VWS V14.01,2013-01-25 15:38:00,
2013-01-25 09:40:00,64.2,59.3,30.14,SSW,198,0.0,5.0,84,0.00,,OVC020,0.00,VWS V14.01,2013-01-25 15:40:00,
2013-01-25 09:43:00,64.7,59.4,30.14,South,188,1.0,4.0,83,0.00,,OVC012,0.00,VWS V14.01,2013-01-25 15:43:00,
2013-01-25 09:48:00,64.7,59.4,30.15,SSE,163,1.0,5.0,83,0.00,,OVC012,0.00,VWS V14.01,2013-01-25 15:48:00,
2013-01-25 09:50:00,64.5,59.6,30.14,South,188,0.0,5.0,84,0.00,,OVC020,0.00,VWS V14.01,2013-01-25 15:50:00,
2013-01-25 09:53:00,64.8,59.5,30.15,SSW,193,1.0,5.0,83,0.00,,OVC012,0.00,VWS V14.01,2013-01-25 15:53:00,
2013-01-25 09:58:00,64.8,59.5,30.15,SSW,193,1.0,5.0,83,0.00,,OVC012,0.00,VWS V14.01,2013-01-25 15:58:00,
2013-01-25 10:00:00,64.7,59.4,30.15,SSE,163,1.0,5.0,83,0.00,,OVC020,0.00,VWS V14.01,2013-01-25 16:00:00,
2013-01-25 10:03:00,65.0,59.4,30.15,SSW,199,1.0,5.0,82,0.00,,OVC012,0.00,VWS V14.01,2013-01-25 16:03:00,
2013-01-25 10:08:00,65.0,59.4,30.15,South,191,0.0,5.0,82,0.00,,OVC012,0.00,VWS V14.01,2013-01-25 16:08:00,
2013-01-25 10:10:00,64.8,59.5,30.15,SSW,193,1.0,5.0,83,0.00,,OVC020,0.00,VWS V14.01,2013-01-25 16:10:00,
2013-01-25 10:13:00,65.0,59.4,30.15,SSW,196,2.0,4.0,82,0.00,,OVC012,0.00,VWS V14.01,2013-01-25 16:13:00,
2013-01-25 10:18:00,65.1,59.5,30.15,SSW,205,3.0,5.0,82,0.00,,OVC012,0.00,VWS V14.01,2013-01-25 16:18:00,
2013-01-25 10:20:00,65.0,59.4,30.15,South,191,0.0,5.0,82,0.00,,OVC020,0.00,VWS V14.01,2013-01-25 16:20:00,
2013-01-25 10:23:00,65.1,59.5,30.15,SSW,204,4.0,4.0,82,0.00,,OVC012,0.00,VWS V14.01,2013-01-25 16:23:00,
2013-01-25 10:28:00,65.3,59.3,30.15,SSW,196,3.0,5.0,81,0.00,,OVC012,0.00,VWS V14.01,2013-01-25 16:28:00,
2013-01-25 10:30:00,65.1,59.5,30.15,SSW,205,3.0,5.0,82,0.00,,OVC020,0.00,VWS V14.01,2013-01-25 16:30:00,
2013-01-25 10:33:00,65.5,59.5,30.15,SSW,203,2.0,6.0,81,0.00,,OVC012,0.00,VWS V14.01,2013-01-25 16:33:00,
2013-01-25 10:38:00,65.6,59.6,30.15,SSW,192,0.0,6.0,81,0.00,,OVC012,0.00,VWS V14.01,2013-01-25 16:38:00,
2013-01-25 10:40:00,65.3,59.3,30.15,SSW,196,3.0,5.0,81,0.00,,OVC020,0.00,VWS V14.01,2013-01-25 16:40:00,
2013-01-25 10:43:00,65.9,59.6,30.15,SW,220,1.0,3.0,80,0.00,,OVC012,0.00,VWS V14.01,2013-01-25 16:43:00,
2013-01-25 10:48:00,66.1,59.4,30.16,SSW,196,3.0,5.0,79,0.00,,OVC012,0.00,VWS V14.01,2013-01-25 16:48:00,
2013-01-25 10:50:00,65.6,59.6,30.15,SSW,192,0.0,6.0,81,0.00,,OVC020,0.00,VWS V14.01,2013-01-25 16:50:00,
2013-01-25 10:53:00,66.1,59.4,30.16,SSW,196,2.0,5.0,79,0.00,,OVC012,0.00,VWS V14.01,2013-01-25 16:53:00,
2013-01-25 10:58:00,66.4,59.7,30.16,SSW,194,3.0,5.0,79,0.00,,OVC012,0.00,VWS V14.01,2013-01-25 16:58:00,
2013-01-25 11:00:00,66.1,59.4,30.16,SSW,196,3.0,5.0,79,0.00,,OVC020,0.00,VWS V14.01,2013-01-25 17:00:00,
2013-01-25 11:03:00,66.6,59.9,30.15,SW,223,1.0,3.0,79,0.00,,OVC012,0.00,VWS V14.01,2013-01-25 17:03:00,
2013-01-25 11:08:00,66.8,59.7,30.15,SSW,196,0.0,5.0,78,0.00,,OVC012,0.00,VWS V14.01,2013-01-25 17:08:00,
2013-01-25 11:10:00,66.4,59.7,30.16,SSW,194,3.0,5.0,79,0.00,,OVC020,0.00,VWS V14.01,2013-01-25 17:10:00,
2013-01-25 11:13:00,66.9,59.8,30.15,South,182,2.0,7.0,78,0.00,,OVC012,0.00,VWS V14.01,2013-01-25 17:13:00,
2013-01-25 11:18:00,67.4,60.0,30.15,SSW,200,1.0,7.0,77,0.00,,OVC012,0.00,VWS V14.01,2013-01-25 17:18:00,
2013-01-25 11:20:00,66.8,59.7,30.15,SSW,196,0.0,5.0,78,0.00,,OVC020,0.00,VWS V14.01,2013-01-25 17:20:00,
2013-01-25 11:23:00,67.8,60.0,30.15,SSW,200,5.0,5.0,76,0.00,,OVC012,0.00,VWS V14.01,2013-01-25 17:23:00,
2013-01-25 11:28:00,68.1,59.9,30.15,SSW,200,2.0,5.0,75,0.00,,OVC012,0.00,VWS V14.01,2013-01-25 17:28:00,
2013-01-25 11:30:00,67.4,60.0,30.15,SSW,200,1.0,7.0,77,0.00,,OVC020,0.00,VWS V14.01,2013-01-25 17:30:00,
2013-01-25 11:33:00,68.3,60.1,30.15,SSW,193,3.0,7.0,75,0.00,,OVC012,0.00,VWS V14.01,2013-01-25 17:33:00,
2013-01-25 11:38:00,68.6,60.0,30.15,SE,135,0.0,7.0,74,0.00,,OVC012,0.00,VWS V14.01,2013-01-25 17:38:00,
2013-01-25 11:40:00,68.1,59.5,30.15,SSW,200,4.0,5.0,74,0.00,,OVC020,0.00,VWS V14.01,2013-01-25 17:40:00,
2013-01-25 11:43:00,69.1,59.7,30.15,SSW,204,1.0,7.0,72,0.00,,OVC012,0.00,VWS V14.01,2013-01-25 17:43:00,
2013-01-25 11:48:00,69.4,60.4,30.14,SSE,159,2.0,7.0,73,0.00,,OVC012,0.00,VWS V14.01,2013-01-25 17:48:00,
2013-01-25 11:50:00,68.6,60.0,30.15,SE,135,0.0,7.0,74,0.00,,OVC020,0.00,VWS V14.01,2013-01-25 17:50:00,
2013-01-25 11:53:00,69.9,60.1,30.14,SSW,201,3.0,6.0,71,0.00,,OVC012,0.00,VWS V14.01,2013-01-25 17:53:00,
2013-01-25 11:58:00,70.3,60.5,30.14,SSW,195,5.0,6.0,71,0.00,,OVC012,0.00,VWS V14.01,2013-01-25 17:58:00,
2013-01-25 12:00:00,69.4,60.4,30.14,SSE,159,2.0,7.0,73,0.00,,OVC020,0.00,VWS V14.01,2013-01-25 18:00:00,
2013-01-25 12:03:00,70.3,60.1,30.13,SSW,203,0.0,6.0,70,0.00,,OVC016,0.00,VWS V14.01,2013-01-25 18:03:00,
2013-01-25 12:08:00,70.3,59.7,30.13,SSW,200,0.0,6.0,69,0.00,,OVC016,0.00,VWS V14.01,2013-01-25 18:08:00,
2013-01-25 12:10:00,70.3,60.5,30.14,SSW,195,5.0,6.0,71,0.00,,OVC020,0.00,VWS V14.01,2013-01-25 18:10:00,
2013-01-25 12:13:00,70.6,60.3,30.13,SSW,199,0.0,4.0,70,0.00,,OVC016,0.00,VWS V14.01,2013-01-25 18:13:00,
2013-01-25 12:18:00,71.3,59.8,30.12,South,182,1.0,6.0,67,0.00,,OVC016,0.00,VWS V14.01,2013-01-25 18:18:00,
2013-01-25 12:20:00,70.3,59.7,30.13,SSW,200,0.0,6.0,69,0.00,,OVC020,0.00,VWS V14.01,2013-01-25 18:20:00,
2013-01-25 12:23:00,71.6,60.1,30.12,South,190,3.0,7.0,67,0.00,,OVC016,0.00,VWS V14.01,2013-01-25 18:23:00,
2013-01-25 12:28:00,72.0,60.5,30.12,South,188,0.0,2.0,67,0.00,,OVC016,0.00,VWS V14.01,2013-01-25 18:28:00,
2013-01-25 12:30:00,71.3,59.8,30.12,South,182,1.0,6.0,67,0.00,,OVC020,0.00,VWS V14.01,2013-01-25 18:30:00,
2013-01-25 12:33:00,72.0,59.6,30.11,SSW,207,0.0,6.0,65,0.00,,SCT018,0.00,VWS V14.01,2013-01-25 18:33:00,
2013-01-25 12:38:00,72.3,59.9,30.11,SSW,192,0.0,0.0,65,0.00,,SCT018,0.00,VWS V14.01,2013-01-25 18:38:00,
2013-01-25 12:40:00,72.0,60.5,30.12,South,188,2.0,7.0,67,0.00,,OVC020,0.00,VWS V14.01,2013-01-25 18:40:00,
2013-01-25 12:43:00,72.7,59.8,30.11,SSW,194,2.0,5.0,64,0.00,,SCT018,0.00,VWS V14.01,2013-01-25 18:43:00,
2013-01-25 12:48:00,73.0,60.1,30.10,SSW,200,4.0,4.0,64,0.00,,SCT018,0.00,VWS V14.01,2013-01-25 18:48:00,
2013-01-25 12:50:00,72.3,59.9,30.11,SSW,192,0.0,6.0,65,0.00,,OVC020,0.00,VWS V14.01,2013-01-25 18:50:00,
2013-01-25 12:53:00,73.5,60.6,30.10,SSW,207,0.0,4.0,64,0.00,,SCT018,0.00,VWS V14.01,2013-01-25 18:53:00,
2013-01-25 12:58:00,73.7,59.9,30.10,SSW,193,2.0,3.0,62,0.00,,SCT018,0.00,VWS V14.01,2013-01-25 18:58:00,
2013-01-25 13:00:00,73.0,60.1,30.10,SSW,200,4.0,5.0,64,0.00,,OVC020,0.00,VWS V14.01,2013-01-25 19:00:00,
2013-01-25 13:03:00,74.1,60.7,30.09,South,187,0.0,6.0,63,0.00,,CLR,0.00,VWS V14.01,2013-01-25 19:03:00,
2013-01-25 13:08:00,74.8,60.5,30.09,West,265,2.0,2.0,61,0.00,,CLR,0.00,VWS V14.01,2013-01-25 19:08:00,
2013-01-25 13:10:00,73.7,59.9,30.10,SSW,194,3.0,9.0,62,0.00,,OVC020,0.00,VWS V14.01,2013-01-25 19:10:00,
2013-01-25 13:13:00,75.3,60.0,30.09,SSW,206,3.0,7.0,59,0.00,,CLR,0.00,VWS V14.01,2013-01-25 19:13:00,
2013-01-25 13:18:00,75.6,60.3,30.09,SSW,202,2.0,2.0,59,0.00,,CLR,0.00,VWS V14.01,2013-01-25 19:18:00,
2013-01-25 13:20:00,74.8,60.5,30.09,West,266,2.0,6.0,61,0.00,,OVC020,0.00,VWS V14.01,2013-01-25 19:20:00,
2013-01-25 13:23:00,75.6,59.8,30.09,SSW,200,0.0,5.0,58,0.00,,CLR,0.00,VWS V14.01,2013-01-25 19:23:00,
2013-01-25 13:28:00,75.6,60.3,30.09,SSW,192,1.0,4.0,59,0.00,,CLR,0.00,VWS V14.01,2013-01-25 19:28:00,
2013-01-25 13:30:00,75.6,60.3,30.09,SSW,202,2.0,7.0,59,0.00,,OVC020,0.00,VWS V14.01,2013-01-25 19:30:00,
2013-01-25 13:33:00,76.0,60.2,30.08,SSW,193,1.0,4.0,58,0.00,,CLR,0.00,VWS V14.01,2013-01-25 19:33:00,
2013-01-25 13:38:00,76.3,60.0,30.08,SSW,213,1.0,1.0,57,0.00,,CLR,0.00,VWS V14.01,2013-01-25 19:38:00,
2013-01-25 13:40:00,75.6,60.3,30.09,SSW,192,4.0,6.0,59,0.00,,OVC020,0.00,VWS V14.01,2013-01-25 19:40:00,
2013-01-25 13:43:00,76.9,60.0,30.08,SSW,199,2.0,5.0,56,0.00,,CLR,0.00,VWS V14.01,2013-01-25 19:43:00,
2013-01-25 13:48:00,77.4,60.5,30.07,South,190,3.0,5.0,56,0.00,,CLR,0.00,VWS V14.01,2013-01-25 19:48:00,
2013-01-25 13:50:00,76.3,60.0,30.08,SSW,213,0.0,5.0,57,0.00,,OVC020,0.00,VWS V14.01,2013-01-25 19:50:00,
2013-01-25 13:53:00,77.4,59.5,30.07,SSW,200,1.0,5.0,54,0.00,,CLR,0.00,VWS V14.01,2013-01-25 19:53:00,
2013-01-25 13:58:00,77.6,59.7,30.07,South,191,4.0,4.0,54,0.00,,CLR,0.00,VWS V14.01,2013-01-25 19:58:00,
2013-01-25 14:00:00,77.4,60.0,30.07,South,190,2.0,5.0,55,0.00,,OVC020,0.00,VWS V14.01,2013-01-25 20:00:00,
2013-01-25 14:03:00,78.0,60.5,30.06,NW,304,0.0,5.0,55,0.00,,CLR,0.00,VWS V14.01,2013-01-25 20:03:00,
2013-01-25 14:08:00,78.3,59.8,30.06,SSW,192,0.0,0.0,53,0.00,,CLR,0.00,VWS V14.01,2013-01-25 20:08:00,
2013-01-25 14:10:00,77.6,59.7,30.07,South,189,2.0,5.0,54,0.00,,OVC020,0.00,VWS V14.01,2013-01-25 20:10:00,
2013-01-25 14:13:00,78.3,59.8,30.06,SSE,163,4.0,7.0,53,0.00,,CLR,0.00,VWS V14.01,2013-01-25 20:13:00,
2013-01-25 14:18:00,78.5,60.0,30.05,SSW,199,2.0,4.0,53,0.00,,CLR,0.00,VWS V14.01,2013-01-25 20:18:00,
2013-01-25 14:20:00,78.3,59.8,30.06,SSW,192,0.0,6.0,53,0.00,,OVC020,0.00,VWS V14.01,2013-01-25 20:20:00,
2013-01-25 14:23:00,78.3,59.2,30.05,SSW,210,4.0,5.0,52,0.00,,CLR,0.00,VWS V14.01,2013-01-25 20:23:00,
2013-01-25 14:28:00,78.3,59.2,30.05,SSE,147,2.0,4.0,52,0.00,,CLR,0.00,VWS V14.01,2013-01-25 20:28:00,
2013-01-25 14:30:00,78.5,60.5,30.05,SSW,199,4.0,7.0,54,0.00,,OVC020,0.00,VWS V14.01,2013-01-25 20:30:00,
2013-01-25 14:33:00,78.9,60.3,30.05,SSW,198,0.0,4.0,53,0.00,,CLR,0.00,VWS V14.01,2013-01-25 20:33:00,
2013-01-25 14:38:00,79.4,58.6,30.05,South,184,1.0,3.0,49,0.00,,CLR,0.00,VWS V14.01,2013-01-25 20:38:00,
2013-01-25 14:40:00,78.3,59.2,30.05,SSE,147,4.0,5.0,52,0.00,,OVC020,0.00,VWS V14.01,2013-01-25 20:40:00,
2013-01-25 14:43:00,79.3,58.5,30.05,SSW,200,0.0,5.0,49,0.00,,CLR,0.00,VWS V14.01,2013-01-25 20:43:00,
2013-01-25 14:48:00,79.1,59.4,30.04,SSW,205,1.0,4.0,51,0.00,,CLR,0.00,VWS V14.01,2013-01-25 20:48:00,
2013-01-25 14:50:00,79.4,58.6,30.05,SSW,192,3.0,6.0,49,0.00,,OVC020,0.00,VWS V14.01,2013-01-25 20:50:00,
2013-01-25 14:53:00,79.3,59.6,30.04,South,186,7.0,7.0,51,0.00,,CLR,0.00,VWS V14.01,2013-01-25 20:53:00,
2013-01-25 14:58:00,79.3,59.1,30.04,SSW,202,0.0,0.0,50,0.00,,CLR,0.00,VWS V14.01,2013-01-25 20:58:00,
2013-01-25 15:00:00,79.1,59.4,30.04,SSW,205,4.0,5.0,51,0.00,,OVC020,0.00,VWS V14.01,2013-01-25 21:00:00,
2013-01-25 15:03:00,79.8,59.5,30.04,South,171,1.0,4.0,50,0.00,,CLR,0.00,VWS V14.01,2013-01-25 21:03:00,
2013-01-25 15:08:00,80.0,59.7,30.04,South,182,0.0,0.0,50,0.00,,CLR,0.00,VWS V14.01,2013-01-25 21:08:00,
2013-01-25 15:10:00,79.3,59.1,30.04,SSW,202,0.0,7.0,50,0.00,,OVC020,0.00,VWS V14.01,2013-01-25 21:10:00,
2013-01-25 15:13:00,80.0,59.1,30.04,South,190,1.0,5.0,49,0.00,,CLR,0.00,VWS V14.01,2013-01-25 21:13:00,
2013-01-25 15:18:00,79.8,59.0,30.04,SSW,202,0.0,0.0,49,0.00,,CLR,0.00,VWS V14.01,2013-01-25 21:18:00,
2013-01-25 15:20:00,80.0,59.7,30.04,South,182,0.0,4.0,50,0.00,,OVC020,0.00,VWS V14.01,2013-01-25 21:20:00,
2013-01-25 15:23:00,80.0,59.1,30.04,SSW,202,1.0,4.0,49,0.00,,CLR,0.00,VWS V14.01,2013-01-25 21:23:00,
2013-01-25 15:28:00,79.8,59.5,30.04,SSW,193,1.0,1.0,50,0.00,,CLR,0.00,VWS V14.01,2013-01-25 21:28:00,
2013-01-25 15:30:00,79.8,59.0,30.04,SSW,202,0.0,6.0,49,0.00,,OVC020,0.00,VWS V14.01,2013-01-25 21:30:00,
2013-01-25 15:33:00,79.6,59.3,30.04,South,170,0.0,4.0,50,0.00,,CLR,0.00,VWS V14.01,2013-01-25 21:33:00,
2013-01-25 15:38:00,79.4,58.6,30.04,SSE,154,2.0,2.0,49,0.00,,CLR,0.00,VWS V14.01,2013-01-25 21:38:00,
2013-01-25 15:40:00,79.8,59.0,30.04,SSW,193,0.0,5.0,49,0.00,,OVC020,0.00,VWS V14.01,2013-01-25 21:40:00,
2013-01-25 15:43:00,79.4,58.6,30.04,SSE,155,1.0,2.0,49,0.00,,CLR,0.00,VWS V14.01,2013-01-25 21:43:00,
2013-01-25 15:48:00,79.6,58.8,30.03,SSW,202,0.0,0.0,49,0.00,,CLR,0.00,VWS V14.01,2013-01-25 21:48:00,
2013-01-25 15:50:00,79.4,58.6,30.04,South,184,1.0,4.0,49,0.00,,OVC020,0.00,VWS V14.01,2013-01-25 21:50:00,
2013-01-25 15:53:00,79.6,58.2,30.03,SSW,198,0.0,5.0,48,0.00,,CLR,0.00,VWS V14.01,2013-01-25 21:53:00,
2013-01-25 15:58:00,79.6,58.2,30.03,SSW,198,1.0,1.0,48,0.00,,CLR,0.00,VWS V14.01,2013-01-25 21:58:00,
2013-01-25 16:00:00,79.6,58.8,30.03,SSW,202,0.0,4.0,49,0.00,,OVC020,0.00,VWS V14.01,2013-01-25 22:00:00,
2013-01-25 16:03:00,79.4,58.0,30.03,SSE,152,2.0,6.0,48,0.00,,CLR,0.00,VWS V14.01,2013-01-25 22:03:00,
2013-01-25 16:08:00,79.3,58.5,30.03,SSE,162,4.0,4.0,49,0.00,,CLR,0.00,VWS V14.01,2013-01-25 22:08:00,
2013-01-25 16:10:00,79.6,58.2,30.03,SSW,202,0.0,5.0,48,0.00,,OVC020,0.00,VWS V14.01,2013-01-25 22:10:00,
2013-01-25 16:13:00,79.1,58.3,30.03,SE,142,0.0,6.0,49,0.00,,CLR,0.00,VWS V14.01,2013-01-25 22:13:00,
2013-01-25 16:18:00,78.9,58.7,30.02,SE,142,0.0,1.0,50,0.00,,CLR,0.00,VWS V14.01,2013-01-25 22:18:00,
2013-01-25 16:20:00,79.3,58.5,30.03,SSE,162,0.0,6.0,49,0.00,,OVC020,0.00,VWS V14.01,2013-01-25 22:20:00,
2013-01-25 16:23:00,78.7,58.5,30.02,SSE,151,4.0,4.0,50,0.00,,CLR,0.00,VWS V14.01,2013-01-25 22:23:00,
2013-01-25 16:28:00,78.5,58.3,30.02,SSE,151,0.0,0.0,50,0.00,,CLR,0.00,VWS V14.01,2013-01-25 22:28:00,
2013-01-25 16:30:00,78.9,58.7,30.02,SE,142,0.0,6.0,50,0.00,,OVC020,0.00,VWS V14.01,2013-01-25 22:30:00,
2013-01-25 16:33:00,78.1,58.5,30.01,SSW,200,1.0,6.0,51,0.00,,CLR,0.00,VWS V14.01,2013-01-25 22:33:00,
2013-01-25 16:38:00,77.8,58.2,30.01,ESE,119,0.0,0.0,51,0.00,,CLR,0.00,VWS V14.01,2013-01-25 22:38:00,
2013-01-25 16:40:00,78.5,58.3,30.02,SSE,150,0.0,5.0,50,0.00,,OVC020,0.00,VWS V14.01,2013-01-25 22:40:00,
2013-01-25 16:43:00,77.6,58.6,30.01,South,183,0.0,4.0,52,0.00,,CLR,0.00,VWS V14.01,2013-01-25 22:43:00,
2013-01-25 16:48:00,77.2,58.8,30.02,SW,220,1.0,1.0,53,0.00,,CLR,0.00,VWS V14.01,2013-01-25 22:48:00,
2013-01-25 16:50:00,77.8,58.2,30.01,ESE,119,0.0,6.0,51,0.00,,OVC020,0.00,VWS V14.01,2013-01-25 22:50:00,
2013-01-25 16:53:00,77.1,58.7,30.02,SW,220,2.0,2.0,53,0.00,,CLR,0.00,VWS V14.01,2013-01-25 22:53:00,
2013-01-25 16:58:00,76.9,58.0,30.02,SW,219,1.0,2.0,52,0.00,,CLR,0.00,VWS V14.01,2013-01-25 22:58:00,
2013-01-25 17:00:00,77.2,58.8,30.02,SW,220,1.0,4.0,53,0.00,,OVC020,0.00,VWS V14.01,2013-01-25 23:00:00,
2013-01-25 17:03:00,76.9,58.5,30.03,SW,216,0.0,3.0,53,0.00,,CLR,0.00,VWS V14.01,2013-01-25 23:03:00,
2013-01-25 17:09:00,76.9,59.0,30.03,SW,216,0.0,0.0,54,0.00,,CLR,0.00,VWS V14.01,2013-01-25 23:09:00,
2013-01-25 17:10:00,76.9,58.0,30.02,SW,219,2.0,3.0,52,0.00,,OVC020,0.00,VWS V14.01,2013-01-25 23:10:00,
2013-01-25 17:14:00,76.9,59.0,30.03,SW,216,0.0,0.0,54,0.00,,CLR,0.00,VWS V14.01,2013-01-25 23:14:00,
2013-01-25 17:19:00,76.7,58.8,30.03,SW,216,0.0,0.0,54,0.00,,CLR,0.00,VWS V14.01,2013-01-25 23:19:00,
2013-01-25 17:20:00,76.9,59.0,30.03,SW,216,0.0,3.0,54,0.00,,OVC020,0.00,VWS V14.01,2013-01-25 23:20:00,
2013-01-25 17:24:00,76.5,59.2,30.03,SW,216,0.0,0.0,55,0.00,,CLR,0.00,VWS V14.01,2013-01-25 23:24:00,
2013-01-25 17:29:00,76.2,58.4,30.03,SW,216,0.0,0.0,54,0.00,,CLR,0.00,VWS V14.01,2013-01-25 23:29:00,
2013-01-25 17:30:00,76.7,58.8,30.03,SW,216,0.0,2.0,54,0.00,,OVC020,0.00,VWS V14.01,2013-01-25 23:30:00,
2013-01-25 17:34:00,75.8,58.5,30.03,SW,216,0.0,0.0,55,0.00,,CLR,0.00,VWS V14.01,2013-01-25 23:34:00,
2013-01-25 17:39:00,75.5,58.7,30.03,SW,216,0.0,0.0,56,0.00,,CLR,0.00,VWS V14.01,2013-01-25 23:39:00,
2013-01-25 17:40:00,76.2,58.4,30.03,SW,216,0.0,0.0,54,0.00,,OVC020,0.00,VWS V14.01,2013-01-25 23:40:00,
2013-01-25 17:43:00,75.1,58.3,30.03,SW,216,0.0,0.0,56,0.00,,CLR,0.00,VWS V14.01,2013-01-25 23:43:00,
2013-01-25 17:48:00,74.8,59.0,30.03,SW,216,0.0,0.0,58,0.00,,CLR,0.00,VWS V14.01,2013-01-25 23:48:00,
2013-01-25 17:50:00,75.5,58.7,30.03,SW,216,0.0,0.0,56,0.00,,OVC020,0.00,VWS V14.01,2013-01-25 23:50:00,
2013-01-25 17:53:00,74.4,59.2,30.03,SW,216,0.0,0.0,59,0.00,,CLR,0.00,VWS V14.01,2013-01-25 23:53:00,
2013-01-25 17:58:00,73.7,59.0,30.03,SW,216,0.0,0.0,60,0.00,,CLR,0.00,VWS V14.01,2013-01-25 23:58:00,
2013-01-25 18:00:00,74.8,58.6,30.03,SW,216,0.0,0.0,57,0.00,,OVC020,0.00,VWS V14.01,2013-01-26 00:00:00,
2013-01-25 18:03:00,73.2,58.5,30.03,SW,216,0.0,0.0,60,0.00,,CLR,0.00,VWS V14.01,2013-01-26 00:03:00,
2013-01-25 18:08:00,72.7,58.5,30.03,SW,216,0.0,0.0,61,0.00,,CLR,0.00,VWS V14.01,2013-01-26 00:08:00,
2013-01-25 18:10:00,73.7,59.0,30.03,SW,216,0.0,0.0,60,0.00,,OVC020,0.00,VWS V14.01,2013-01-26 00:10:00,
2013-01-25 18:13:00,72.0,58.7,30.03,SW,216,0.0,0.0,63,0.00,,CLR,0.00,VWS V14.01,2013-01-26 00:13:00,
2013-01-25 18:18:00,71.3,58.1,30.03,SW,216,0.0,0.0,63,0.00,,CLR,0.00,VWS V14.01,2013-01-26 00:18:00,
2013-01-25 18:20:00,72.7,58.5,30.03,SW,216,0.0,0.0,61,0.00,,OVC020,0.00,VWS V14.01,2013-01-26 00:20:00,
2013-01-25 18:23:00,70.8,58.0,30.03,SW,216,0.0,0.0,64,0.00,,CLR,0.00,VWS V14.01,2013-01-26 00:23:00,
2013-01-25 18:28:00,70.1,57.8,30.03,SW,216,0.0,0.0,65,0.00,,CLR,0.00,VWS V14.01,2013-01-26 00:28:00,
2013-01-25 18:30:00,71.3,58.1,30.03,SW,216,0.0,0.0,63,0.00,,OVC020,0.00,VWS V14.01,2013-01-26 00:30:00,
2013-01-25 18:33:00,69.6,58.2,30.03,SW,216,0.0,0.0,67,0.00,,CLR,0.00,VWS V14.01,2013-01-26 00:33:00,
2013-01-25 18:38:00,69.1,58.1,30.03,SW,216,0.0,0.0,68,0.00,,CLR,0.00,VWS V14.01,2013-01-26 00:38:00,
2013-01-25 18:40:00,70.1,57.8,30.03,SW,216,0.0,0.0,65,0.00,,OVC020,0.00,VWS V14.01,2013-01-26 00:40:00,
2013-01-25 18:43:00,68.8,58.2,30.03,SW,216,0.0,0.0,69,0.00,,CLR,0.00,VWS V14.01,2013-01-26 00:43:00,
2013-01-25 18:48:00,68.3,58.2,30.04,SW,216,0.0,0.0,70,0.00,,CLR,0.00,VWS V14.01,2013-01-26 00:48:00,
2013-01-25 18:50:00,69.1,58.1,30.03,SW,216,0.0,0.0,68,0.00,,OVC020,0.00,VWS V14.01,2013-01-26 00:50:00,
2013-01-25 18:53:00,68.1,58.3,30.04,SW,216,0.0,0.0,71,0.00,,CLR,0.00,VWS V14.01,2013-01-26 00:53:00,
2013-01-25 18:58:00,67.8,58.1,30.04,SW,216,0.0,0.0,71,0.00,,CLR,0.00,VWS V14.01,2013-01-26 00:58:00,
2013-01-25 19:00:00,68.4,58.2,30.04,SW,216,0.0,0.0,70,0.00,,OVC020,0.00,VWS V14.01,2013-01-26 01:00:00,
2013-01-25 19:03:00,67.6,58.3,30.04,SW,216,0.0,0.0,72,0.00,,CLR,0.00,VWS V14.01,2013-01-26 01:03:00,
2013-01-25 19:08:00,67.4,58.1,30.04,SW,216,0.0,0.0,72,0.00,,CLR,0.00,VWS V14.01,2013-01-26 01:08:00,
2013-01-25 19:10:00,67.9,58.2,30.04,SW,216,0.0,0.0,71,0.00,,OVC020,0.00,VWS V14.01,2013-01-26 01:10:00,
2013-01-25 19:13:00,67.3,58.4,30.04,SW,216,0.0,0.0,73,0.00,,CLR,0.00,VWS V14.01,2013-01-26 01:13:00,
2013-01-25 19:18:00,67.1,58.2,30.04,SW,216,0.0,0.0,73,0.00,,CLR,0.00,VWS V14.01,2013-01-26 01:18:00,
2013-01-25 19:20:00,67.4,58.1,30.04,SW,216,0.0,0.0,72,0.00,,OVC020,0.00,VWS V14.01,2013-01-26 01:20:00,
2013-01-25 19:23:00,66.8,58.3,30.04,SW,216,0.0,0.0,74,0.00,,CLR,0.00,VWS V14.01,2013-01-26 01:23:00,
2013-01-25 19:28:00,66.4,57.9,30.04,SW,216,0.0,0.0,74,0.00,,CLR,0.00,VWS V14.01,2013-01-26 01:28:00,
2013-01-25 19:30:00,67.1,58.2,30.04,SW,216,0.0,0.0,73,0.00,,OVC020,0.00,VWS V14.01,2013-01-26 01:30:00,
2013-01-25 19:33:00,66.1,58.0,30.04,SW,216,0.0,0.0,75,0.00,,CLR,0.00,VWS V14.01,2013-01-26 01:33:00,
2013-01-25 19:38:00,65.9,58.1,30.04,SW,216,0.0,0.0,76,0.00,,CLR,0.00,VWS V14.01,2013-01-26 01:38:00,
2013-01-25 19:40:00,66.4,57.9,30.04,SW,216,0.0,0.0,74,0.00,,OVC020,0.00,VWS V14.01,2013-01-26 01:40:00,
2013-01-25 19:43:00,65.6,57.8,30.04,SW,216,0.0,0.0,76,0.00,,CLR,0.00,VWS V14.01,2013-01-26 01:43:00,
2013-01-25 19:48:00,65.5,57.7,30.04,SW,216,0.0,0.0,76,0.00,,CLR,0.00,VWS V14.01,2013-01-26 01:48:00,
2013-01-25 19:50:00,65.9,58.1,30.04,SW,216,0.0,0.0,76,0.00,,OVC020,0.00,VWS V14.01,2013-01-26 01:50:00,
2013-01-25 19:53:00,65.1,57.7,30.04,SW,216,0.0,0.0,77,0.00,,CLR,0.00,VWS V14.01,2013-01-26 01:53:00,
2013-01-25 19:58:00,65.0,57.6,30.04,SW,216,0.0,0.0,77,0.00,,CLR,0.00,VWS V14.01,2013-01-26 01:58:00,
2013-01-25 20:00:00,65.5,57.7,30.04,SW,216,0.0,0.0,76,0.00,,OVC020,0.00,VWS V14.01,2013-01-26 02:00:00,
2013-01-25 20:03:00,64.8,57.4,30.05,SW,216,0.0,0.0,77,0.00,,CLR,0.00,VWS V14.01,2013-01-26 02:03:00,
2013-01-25 20:08:00,64.8,57.8,30.05,SW,216,0.0,0.0,78,0.00,,CLR,0.00,VWS V14.01,2013-01-26 02:08:00,
2013-01-25 20:10:00,65.0,57.6,30.04,SW,216,0.0,0.0,77,0.00,,OVC020,0.00,VWS V14.01,2013-01-26 02:10:00,
2013-01-25 20:13:00,65.0,58.0,30.05,SW,216,0.0,0.0,78,0.00,,CLR,0.00,VWS V14.01,2013-01-26 02:13:00,
2013-01-25 20:19:00,65.3,58.3,30.05,SW,216,0.0,0.0,78,0.00,,CLR,0.00,VWS V14.01,2013-01-26 02:19:00,
2013-01-25 20:20:00,64.8,57.8,30.05,SW,216,0.0,0.0,78,0.00,,OVC020,0.00,VWS V14.01,2013-01-26 02:20:00,
2013-01-25 20:24:00,65.8,58.8,30.05,SW,216,0.0,0.0,78,0.00,,CLR,0.00,VWS V14.01,2013-01-26 02:24:00,
2013-01-25 20:29:00,66.9,59.5,30.05,SSW,211,1.0,2.0,77,0.00,,CLR,0.00,VWS V14.01,2013-01-26 02:29:00,
2013-01-25 20:30:00,65.3,58.3,30.05,SW,216,0.0,0.0,78,0.00,,OVC020,0.00,VWS V14.01,2013-01-26 02:30:00,
2013-01-25 20:34:00,67.9,60.1,30.05,SSW,211,0.0,2.0,76,0.00,,CLR,0.00,VWS V14.01,2013-01-26 02:34:00,
2013-01-25 20:39:00,68.6,60.0,30.05,SSW,211,0.0,0.0,74,0.00,,CLR,0.00,VWS V14.01,2013-01-26 02:39:00,
2013-01-25 20:40:00,66.8,59.4,30.05,SSW,211,0.0,2.0,77,0.00,,OVC020,0.00,VWS V14.01,2013-01-26 02:40:00,
2013-01-25 20:44:00,68.8,60.2,30.05,SSW,211,0.0,0.0,74,0.00,,CLR,0.00,VWS V14.01,2013-01-26 02:44:00,
2013-01-25 20:49:00,68.6,60.0,30.06,SSW,211,0.0,0.0,74,0.00,,CLR,0.00,VWS V14.01,2013-01-26 02:49:00,
2013-01-25 20:50:00,68.6,60.0,30.05,SSW,211,0.0,2.0,74,0.00,,OVC020,0.00,VWS V14.01,2013-01-26 02:50:00,
2013-01-25 20:54:00,68.6,60.0,30.06,SSW,202,0.0,2.0,74,0.00,,CLR,0.00,VWS V14.01,2013-01-26 02:54:00,
2013-01-25 20:58:00,68.8,60.6,30.06,SSE,152,0.0,1.0,75,0.00,,CLR,0.00,VWS V14.01,2013-01-26 02:58:00,
2013-01-25 21:00:00,68.6,60.0,30.06,SSW,211,0.0,0.0,74,0.00,,OVC020,0.00,VWS V14.01,2013-01-26 03:00:00,
2013-01-25 21:04:00,68.8,60.6,30.06,SSE,152,0.0,2.0,75,0.00,,CLR,0.00,VWS V14.01,2013-01-26 03:04:00,
2013-01-25 21:08:00,68.8,60.6,30.06,SSE,153,1.0,1.0,75,0.00,,CLR,0.00,VWS V14.01,2013-01-26 03:08:00,
2013-01-25 21:10:00,68.8,60.6,30.06,SSE,152,1.0,4.0,75,0.00,,OVC020,0.00,VWS V14.01,2013-01-26 03:10:00,
2013-01-25 21:14:00,68.8,60.6,30.06,SW,232,3.0,5.0,75,0.00,,CLR,0.00,VWS V14.01,2013-01-26 03:14:00,
2013-01-25 21:19:00,68.8,60.6,30.07,SW,219,0.0,0.0,75,0.00,,CLR,0.00,VWS V14.01,2013-01-26 03:19:00,
2013-01-25 21:20:00,68.8,60.6,30.06,SSE,153,1.0,2.0,75,0.00,,OVC020,0.00,VWS V14.01,2013-01-26 03:20:00,
2013-01-25 21:24:00,68.8,60.9,30.07,SSW,198,0.0,2.0,76,0.00,,CLR,0.00,VWS V14.01,2013-01-26 03:24:00,
2013-01-25 21:29:00,68.6,60.7,30.07,SSW,198,0.0,0.0,76,0.00,,CLR,0.00,VWS V14.01,2013-01-26 03:29:00,
2013-01-25 21:30:00,68.8,60.6,30.07,SW,219,0.0,5.0,75,0.00,,OVC020,0.00,VWS V14.01,2013-01-26 03:30:00,
2013-01-25 21:34:00,68.6,60.7,30.08,South,176,0.0,4.0,76,0.00,,CLR,0.00,VWS V14.01,2013-01-26 03:34:00,
2013-01-25 21:39:00,68.4,60.5,30.08,South,176,0.0,1.0,76,0.00,,CLR,0.00,VWS V14.01,2013-01-26 03:39:00,
2013-01-25 21:40:00,68.6,60.7,30.07,SSW,198,0.0,2.0,76,0.00,,OVC020,0.00,VWS V14.01,2013-01-26 03:40:00,
2013-01-25 21:44:00,68.3,60.8,30.08,South,176,0.0,1.0,77,0.00,,CLR,0.00,VWS V14.01,2013-01-26 03:44:00,
2013-01-25 21:49:00,67.9,60.4,30.09,South,176,0.0,0.0,77,0.00,,CLR,0.00,VWS V14.01,2013-01-26 03:49:00,
2013-01-25 21:50:00,68.4,60.5,30.08,South,176,1.0,4.0,76,0.00,,OVC020,0.00,VWS V14.01,2013-01-26 03:50:00,
2013-01-25 21:54:00,67.8,60.3,30.09,South,176,0.0,0.0,77,0.00,,CLR,0.00,VWS V14.01,2013-01-26 03:54:00,
2013-01-25 21:59:00,67.4,60.3,30.09,South,176,0.0,0.0,78,0.00,,CLR,0.00,VWS V14.01,2013-01-26 03:59:00,
2013-01-25 22:00:00,67.9,60.4,30.09,South,176,0.0,2.0,77,0.00,,OVC020,0.00,VWS V14.01,2013-01-26 04:00:00,
2013-01-25 22:04:00,67.1,60.4,30.09,South,177,0.0,1.0,79,0.00,,CLR,0.00,VWS V14.01,2013-01-26 04:04:00,
2013-01-25 22:09:00,67.1,60.4,30.09,South,176,0.0,0.0,79,0.00,,CLR,0.00,VWS V14.01,2013-01-26 04:09:00,
2013-01-25 22:10:00,67.4,60.3,30.09,South,176,0.0,0.0,78,0.00,,OVC020,0.00,VWS V14.01,2013-01-26 04:10:00,
2013-01-25 22:14:00,66.9,60.5,30.09,South,178,0.0,4.0,80,0.00,,CLR,0.00,VWS V14.01,2013-01-26 04:14:00,
2013-01-25 22:19:00,66.8,60.4,30.09,South,178,0.0,0.0,80,0.00,,CLR,0.00,VWS V14.01,2013-01-26 04:19:00,
2013-01-25 22:20:00,67.1,60.4,30.09,South,176,0.0,2.0,79,0.00,,OVC020,0.00,VWS V14.01,2013-01-26 04:20:00,
2013-01-25 22:24:00,66.6,60.2,30.09,South,178,0.0,0.0,80,0.00,,CLR,0.00,VWS V14.01,2013-01-26 04:24:00,
2013-01-25 22:29:00,66.4,60.0,30.09,South,178,0.0,0.0,80,0.00,,CLR,0.00,VWS V14.01,2013-01-26 04:29:00,
2013-01-25 22:30:00,66.8,60.4,30.09,South,178,0.0,4.0,80,0.00,,OVC020,0.00,VWS V14.01,2013-01-26 04:30:00,
2013-01-25 22:34:00,66.3,60.3,30.11,South,178,0.0,0.0,81,0.00,,CLR,0.00,VWS V14.01,2013-01-26 04:34:00,
2013-01-25 22:39:00,66.1,60.1,30.11,South,178,0.0,0.0,81,0.00,,CLR,0.00,VWS V14.01,2013-01-26 04:39:00,
2013-01-25 22:40:00,66.6,60.2,30.09,South,178,0.0,0.0,80,0.00,,OVC020,0.00,VWS V14.01,2013-01-26 04:40:00,
2013-01-25 22:44:00,65.8,59.8,30.11,South,178,0.0,0.0,81,0.00,,CLR,0.00,VWS V14.01,2013-01-26 04:44:00,
2013-01-25 22:49:00,65.3,59.7,30.12,South,178,0.0,0.0,82,0.00,,CLR,0.00,VWS V14.01,2013-01-26 04:49:00,
2013-01-25 22:50:00,66.1,60.1,30.11,South,178,0.0,0.0,81,0.00,,OVC020,0.00,VWS V14.01,2013-01-26 04:50:00,
2013-01-25 22:54:00,65.1,59.8,30.12,South,178,0.0,0.0,83,0.00,,BKN020,0.00,VWS V14.01,2013-01-26 04:54:00,
2013-01-25 22:59:00,65.3,60.3,30.12,South,178,0.0,1.0,84,0.00,,BKN020,0.00,VWS V14.01,2013-01-26 04:59:00,
2013-01-25 23:00:00,65.3,60.3,30.12,South,178,0.0,1.0,84,0.00,,BKN020,0.00,VWS V14.01,2013-01-26 05:00:00,
2013-01-25 23:03:00,65.5,60.5,30.12,South,178,0.0,1.0,84,0.00,,OVC020,0.00,VWS V14.01,2013-01-26 05:03:00,
2013-01-25 23:08:00,65.5,60.5,30.12,South,178,0.0,1.0,84,0.00,,OVC020,0.00,VWS V14.01,2013-01-26 05:08:00,
2013-01-25 23:10:00,65.3,60.3,30.12,South,178,0.0,0.0,84,0.00,,OVC020,0.00,VWS V14.01,2013-01-26 05:10:00,
2013-01-25 23:13:00,65.6,60.3,30.12,South,178,0.0,0.0,83,0.00,,OVC020,0.00,VWS V14.01,2013-01-26 05:13:00,
2013-01-25 23:18:00,65.6,60.3,30.12,South,178,0.0,0.0,83,0.00,,OVC020,0.00,VWS V14.01,2013-01-26 05:18:00,
2013-01-25 23:20:00,65.5,60.5,30.12,South,178,0.0,1.0,84,0.00,,OVC020,0.00,VWS V14.01,2013-01-26 05:20:00,
2013-01-25 23:23:00,65.6,60.3,30.12,South,178,0.0,0.0,83,0.00,,OVC020,0.00,VWS V14.01,2013-01-26 05:23:00,
2013-01-25 23:28:00,65.8,60.5,30.12,South,178,0.0,0.0,83,0.00,,OVC020,0.00,VWS V14.01,2013-01-26 05:28:00,
2013-01-25 23:30:00,65.6,60.3,30.12,South,178,0.0,0.0,83,0.00,,OVC020,0.00,VWS V14.01,2013-01-26 05:30:00,
2013-01-25 23:33:00,65.8,60.5,30.12,South,178,0.0,1.0,83,0.00,,OVC020,0.00,VWS V14.01,2013-01-26 05:33:00,
2013-01-25 23:38:00,65.8,60.5,30.12,South,178,0.0,1.0,83,0.00,,OVC020,0.00,VWS V14.01,2013-01-26 05:38:00,
2013-01-25 23:40:00,65.8,60.5,30.12,South,178,0.0,0.0,83,0.00,,OVC020,0.00,VWS V14.01,2013-01-26 05:40:00,
2013-01-25 23:43:00,65.9,60.6,30.12,South,178,0.0,0.0,83,0.00,,OVC020,0.00,VWS V14.01,2013-01-26 05:43:00,
2013-01-25 23:50:00,65.8,60.5,30.12,South,178,0.0,1.0,83,0.00,,OVC020,0.00,VWS V14.01,2013-01-26 05:50:00,